createdAt,value
2018-09-03T00:00:33.151Z,15.92
2018-09-03T00:03:00.361Z,15.93
2018-09-03T00:05:27.760Z,15.97
2018-09-03T00:07:55.068Z,15.99
2018-09-03T00:10:22.366Z,15.92
2018-09-03T00:12:49.618Z,15.92
2018-09-03T00:15:16.889Z,15.94
2018-09-03T00:17:44.109Z,15.84
2018-09-03T00:20:11.427Z,15.85
2018-09-03T00:22:38.653Z,15.85
2018-09-03T00:25:06.401Z,15.89
2018-09-03T00:27:33.651Z,15.91
2018-09-03T00:30:00.879Z,15.88
2018-09-03T00:32:33.771Z,15.90
2018-09-03T00:35:06.749Z,15.85
2018-09-03T00:37:39.699Z,15.82
2018-09-03T00:40:12.683Z,15.73
2018-09-03T00:42:45.445Z,15.81
2018-09-03T00:45:18.322Z,15.89
2018-09-03T00:47:45.631Z,15.90
2018-09-03T00:50:12.819Z,15.88
2018-09-03T00:52:40.083Z,15.92
2018-09-03T00:55:07.383Z,15.86
2018-09-03T00:57:34.673Z,15.90
2018-09-03T01:00:02.160Z,15.88
2018-09-03T01:02:29.472Z,15.87
2018-09-03T01:04:56.639Z,15.87
2018-09-03T01:07:23.962Z,15.85
2018-09-03T01:09:51.243Z,15.89
2018-09-03T01:12:18.480Z,15.93
2018-09-03T01:14:45.747Z,15.92
2018-09-03T01:17:12.978Z,15.87
2018-09-03T01:19:40.246Z,15.90
2018-09-03T01:22:07.477Z,15.87
2018-09-03T01:24:34.757Z,15.85
2018-09-03T01:27:02.005Z,15.86
2018-09-03T01:29:29.296Z,15.77
2018-09-03T01:31:56.602Z,15.76
2018-09-03T01:34:24.583Z,15.79
2018-09-03T01:36:51.875Z,15.76
2018-09-03T01:39:19.171Z,15.77
2018-09-03T01:41:46.450Z,15.83
2018-09-03T01:44:13.712Z,15.85
2018-09-03T01:46:40.952Z,15.85
2018-09-03T01:49:08.154Z,15.76
2018-09-03T01:51:35.407Z,15.67
2018-09-03T01:54:02.666Z,15.65
2018-09-03T01:56:29.882Z,15.70
2018-09-03T01:58:57.132Z,15.76
2018-09-03T02:01:24.473Z,15.81
2018-09-03T02:03:51.757Z,15.85
2018-09-03T02:06:19.164Z,15.90
2018-09-03T02:08:46.313Z,15.87
2018-09-03T02:11:13.694Z,15.88
2018-09-03T02:13:41.017Z,15.83
2018-09-03T02:16:08.384Z,15.83
2018-09-03T02:18:35.644Z,15.76
2018-09-03T02:21:02.971Z,15.73
2018-09-03T02:23:30.181Z,15.75
2018-09-03T02:25:57.452Z,15.81
2018-09-03T02:28:24.734Z,15.85
2018-09-03T02:30:51.887Z,15.86
2018-09-03T02:33:19.142Z,15.81
2018-09-03T02:35:46.421Z,15.68
2018-09-03T02:38:13.695Z,15.64
2018-09-03T02:40:40.970Z,15.71
2018-09-03T02:43:08.253Z,15.78
2018-09-03T02:45:35.514Z,15.85
2018-09-03T02:48:02.767Z,15.89
2018-09-03T02:50:30.048Z,15.91
2018-09-03T02:52:57.211Z,15.94
2018-09-03T02:55:24.518Z,15.93
2018-09-03T02:57:51.752Z,15.96
2018-09-03T03:00:21.914Z,16.01
2018-09-03T03:02:49.126Z,15.96
2018-09-03T03:05:16.390Z,15.91
2018-09-03T03:07:43.658Z,15.91
2018-09-03T03:10:10.949Z,15.95
2018-09-03T03:12:38.124Z,16.01
2018-09-03T03:15:05.392Z,16.03
2018-09-03T03:17:32.704Z,15.99
2018-09-03T03:19:59.985Z,15.94
2018-09-03T03:22:27.241Z,15.93
2018-09-03T03:24:54.513Z,15.96
2018-09-03T03:27:21.725Z,15.96
2018-09-03T03:29:48.981Z,15.97
2018-09-03T03:32:16.304Z,15.96
2018-09-03T03:34:43.529Z,15.98
2018-09-03T03:37:10.794Z,15.99
2018-09-03T03:39:38.005Z,16.00
2018-09-03T03:42:05.613Z,15.99
2018-09-03T03:44:32.841Z,15.95
2018-09-03T03:47:00.131Z,15.97
2018-09-03T03:49:27.407Z,15.91
2018-09-03T03:51:54.625Z,15.95
2018-09-03T03:54:21.937Z,15.97
2018-09-03T03:56:49.184Z,15.96
2018-09-03T03:59:16.409Z,16.02
2018-09-03T04:01:43.641Z,15.99
2018-09-03T04:04:10.958Z,15.99
2018-09-03T04:06:38.246Z,15.99
2018-09-03T04:09:07.108Z,16.03
2018-09-03T04:11:34.407Z,15.95
2018-09-03T04:14:01.755Z,15.97
2018-09-03T04:16:28.970Z,15.94
2018-09-03T04:18:56.274Z,15.98
2018-09-03T04:21:23.512Z,15.99
2018-09-03T04:23:50.789Z,15.94
2018-09-03T04:26:18.006Z,15.87
2018-09-03T04:28:45.373Z,15.87
2018-09-03T04:33:52.228Z,15.88
2018-09-03T04:36:19.535Z,15.78
2018-09-03T04:38:46.970Z,15.79
2018-09-03T04:41:14.337Z,15.77
2018-09-03T04:43:41.722Z,15.73
2018-09-03T04:46:09.167Z,15.66
2018-09-03T04:48:36.434Z,15.66
2018-09-03T04:51:03.830Z,15.73
2018-09-03T04:53:31.062Z,15.80
2018-09-03T04:55:58.350Z,15.85
2018-09-03T04:58:25.674Z,15.90
2018-09-03T05:00:52.948Z,15.90
2018-09-03T05:03:20.155Z,15.92
2018-09-03T05:05:47.466Z,15.81
2018-09-03T05:08:14.731Z,15.94
2018-09-03T05:10:42.059Z,15.92
2018-09-03T05:13:09.339Z,15.97
2018-09-03T05:15:36.648Z,16.04
2018-09-03T05:18:04.079Z,16.09
2018-09-03T05:20:31.425Z,16.05
2018-09-03T05:22:58.806Z,16.11
2018-09-03T05:25:26.238Z,16.17
2018-09-03T05:27:53.487Z,16.19
2018-09-03T05:30:21.151Z,16.02
2018-09-03T05:32:48.483Z,16.01
2018-09-03T05:35:15.742Z,15.95
2018-09-03T05:37:42.990Z,15.96
2018-09-03T05:40:10.482Z,15.92
2018-09-03T05:42:37.917Z,15.91
2018-09-03T05:45:05.531Z,15.94
2018-09-03T05:47:32.767Z,15.99
2018-09-03T05:49:59.977Z,15.95
2018-09-03T05:52:27.388Z,16.01
2018-09-03T05:54:54.693Z,15.90
2018-09-03T05:57:22.086Z,15.90
2018-09-03T05:59:49.348Z,16.06
2018-09-03T06:02:16.621Z,16.04
2018-09-03T06:04:44.042Z,16.04
2018-09-03T06:07:11.244Z,16.01
2018-09-03T06:09:38.512Z,15.98
2018-09-03T06:12:05.657Z,15.99
2018-09-03T06:14:32.850Z,16.10
2018-09-03T06:17:00.250Z,16.12
2018-09-03T06:19:27.531Z,16.14
2018-09-03T06:21:54.956Z,16.08
2018-09-03T06:24:22.314Z,16.17
2018-09-03T06:26:49.676Z,16.21
2018-09-03T06:29:17.055Z,16.22
2018-09-03T06:31:44.312Z,16.16
2018-09-03T06:34:11.577Z,16.08
2018-09-03T06:36:38.887Z,16.03
2018-09-03T06:39:07.302Z,16.14
2018-09-03T06:41:34.589Z,16.22
2018-09-03T06:44:02.052Z,16.26
2018-09-03T06:46:29.364Z,16.26
2018-09-03T06:48:56.629Z,16.26
2018-09-03T06:51:23.992Z,16.27
2018-09-03T06:53:51.309Z,16.32
2018-09-03T06:56:18.630Z,16.33
2018-09-03T06:58:45.929Z,16.29
2018-09-03T07:01:13.360Z,16.23
2018-09-03T07:03:41.359Z,16.24
2018-09-03T07:06:08.928Z,16.29
2018-09-03T07:08:36.897Z,16.38
2018-09-03T07:11:04.386Z,16.46
2018-09-03T07:13:31.619Z,16.47
2018-09-03T07:15:58.890Z,16.55
2018-09-03T07:18:26.192Z,16.65
2018-09-03T07:20:53.418Z,16.58
2018-09-03T07:23:20.748Z,16.59
2018-09-03T07:25:47.988Z,16.74
2018-09-03T07:28:15.276Z,16.77
2018-09-03T07:30:42.615Z,16.73
2018-09-03T07:33:09.911Z,16.74
2018-09-03T07:35:37.189Z,16.75
2018-09-03T07:38:04.560Z,16.77
2018-09-03T07:40:31.822Z,16.84
2018-09-03T07:42:59.268Z,16.90
2018-09-03T07:45:26.596Z,16.94
2018-09-03T07:47:53.875Z,16.99
2018-09-03T07:50:21.168Z,17.07
2018-09-03T07:52:48.446Z,16.97
2018-09-03T07:55:15.812Z,17.02
2018-09-03T07:57:43.083Z,17.03
2018-09-03T08:00:10.520Z,17.03
2018-09-03T08:02:37.898Z,16.89
2018-09-03T08:05:05.582Z,16.98
2018-09-03T08:07:32.903Z,17.03
2018-09-03T08:10:00.271Z,17.01
2018-09-03T08:12:27.468Z,17.07
2018-09-03T08:14:54.754Z,17.03
2018-09-03T08:17:22.004Z,16.92
2018-09-03T08:19:49.328Z,16.73
2018-09-03T08:22:16.647Z,16.75
2018-09-03T08:24:43.945Z,16.84
2018-09-03T08:27:11.306Z,16.99
2018-09-03T08:29:38.640Z,17.15
2018-09-03T08:32:05.944Z,17.32
2018-09-03T08:34:33.248Z,17.39
2018-09-03T08:37:00.564Z,17.59
2018-09-03T08:39:27.836Z,17.70
2018-09-03T08:41:55.150Z,17.69
2018-09-03T08:44:22.411Z,17.61
2018-09-03T08:46:49.659Z,17.62
2018-09-03T08:49:17.077Z,17.69
2018-09-03T08:51:44.355Z,17.74
2018-09-03T08:54:11.676Z,17.75
2018-09-03T08:56:39.055Z,17.73
2018-09-03T08:59:06.425Z,17.71
2018-09-03T09:01:33.763Z,17.71
2018-09-03T09:04:01.227Z,17.76
2018-09-03T09:06:28.532Z,17.68
2018-09-03T09:08:55.861Z,17.66
2018-09-03T09:11:23.196Z,17.58
2018-09-03T09:13:50.496Z,17.52
2018-09-03T09:16:17.811Z,17.42
2018-09-03T09:18:45.153Z,17.49
2018-09-03T09:21:12.442Z,17.50
2018-09-03T09:23:39.757Z,17.79
2018-09-03T09:26:07.022Z,17.84
2018-09-03T09:28:34.316Z,17.93
2018-09-03T09:31:01.628Z,17.96
2018-09-03T09:33:28.839Z,17.94
2018-09-03T09:35:56.195Z,17.96
2018-09-03T09:38:23.471Z,17.99
2018-09-03T09:40:50.849Z,17.99
2018-09-03T09:43:18.275Z,17.98
2018-09-03T09:45:45.571Z,18.01
2018-09-03T09:48:12.976Z,17.91
2018-09-03T09:50:40.984Z,17.87
2018-09-03T09:53:08.196Z,17.80
2018-09-03T09:55:35.565Z,17.78
2018-09-03T09:58:02.831Z,17.81
2018-09-03T10:00:35.871Z,17.84
2018-09-03T10:03:03.080Z,18.00
2018-09-03T10:05:30.465Z,18.04
2018-09-03T10:07:57.766Z,18.09
2018-09-03T10:10:25.041Z,18.06
2018-09-03T10:12:52.361Z,18.16
2018-09-03T10:15:19.669Z,18.31
2018-09-03T10:17:46.893Z,18.30
2018-09-03T10:20:14.190Z,18.32
2018-09-03T10:22:41.467Z,18.29
2018-09-03T10:25:08.809Z,18.26
2018-09-03T10:27:36.087Z,18.09
2018-09-03T10:30:03.504Z,18.12
2018-09-03T10:32:31.521Z,18.26
2018-09-03T10:34:58.847Z,18.28
2018-09-03T10:37:26.222Z,18.27
2018-09-03T10:39:53.553Z,18.37
2018-09-03T10:42:24.828Z,18.34
2018-09-03T10:44:52.231Z,18.48
2018-09-03T10:47:19.684Z,18.54
2018-09-03T10:49:46.947Z,18.78
2018-09-03T10:52:14.297Z,18.73
2018-09-03T10:54:41.629Z,18.88
2018-09-03T10:57:08.974Z,19.02
2018-09-03T10:59:36.269Z,19.08
2018-09-03T11:02:03.588Z,19.18
2018-09-03T11:04:30.869Z,19.11
2018-09-03T11:06:58.099Z,19.16
2018-09-03T11:09:25.435Z,19.39
2018-09-03T11:11:52.779Z,19.48
2018-09-03T11:14:20.005Z,19.19
2018-09-03T11:16:47.315Z,19.25
2018-09-03T11:19:14.994Z,19.32
2018-09-03T11:21:42.342Z,19.52
2018-09-03T11:24:09.603Z,19.63
2018-09-03T11:26:36.895Z,19.62
2018-09-03T11:29:04.200Z,19.64
2018-09-03T11:31:31.578Z,19.62
2018-09-03T11:33:58.792Z,19.44
2018-09-03T11:36:26.064Z,19.45
2018-09-03T11:38:53.350Z,19.65
2018-09-03T11:41:20.586Z,19.74
2018-09-03T11:43:47.844Z,19.85
2018-09-03T11:46:15.150Z,20.02
2018-09-03T11:48:42.372Z,20.06
2018-09-03T11:51:09.636Z,20.08
2018-09-03T11:53:37.056Z,20.13
2018-09-03T11:56:04.370Z,20.19
2018-09-03T11:58:31.755Z,20.18
2018-09-03T12:01:00.002Z,20.23
2018-09-03T12:03:27.353Z,20.35
2018-09-03T12:05:55.348Z,20.45
2018-09-03T12:08:22.690Z,20.35
2018-09-03T12:10:49.967Z,20.36
2018-09-03T12:13:17.236Z,20.55
2018-09-03T12:15:49.074Z,20.65
2018-09-03T12:18:16.577Z,20.49
2018-09-03T12:20:43.843Z,20.39
2018-09-03T12:23:11.048Z,20.54
2018-09-03T12:25:38.948Z,20.71
2018-09-03T12:28:06.212Z,20.85
2018-09-03T12:30:33.481Z,20.84
2018-09-03T12:33:00.761Z,20.67
2018-09-03T12:35:28.120Z,20.75
2018-09-03T12:37:55.432Z,20.68
2018-09-03T12:40:22.687Z,20.71
2018-09-03T12:42:49.988Z,20.76
2018-09-03T12:45:21.429Z,20.89
2018-09-03T12:47:48.680Z,21.10
2018-09-03T12:50:15.938Z,21.07
2018-09-03T12:52:43.243Z,21.12
2018-09-03T12:55:10.488Z,20.93
2018-09-03T12:57:37.711Z,21.14
2018-09-03T13:00:05.677Z,20.94
2018-09-03T13:02:39.414Z,21.02
2018-09-03T13:04:59.590Z,21.06
2018-09-03T13:10:23.065Z,21.39
2018-09-03T13:12:50.357Z,21.58
2018-09-03T13:15:17.576Z,21.36
2018-09-03T13:17:44.917Z,21.47
2018-09-03T13:20:12.445Z,21.47
2018-09-03T13:22:39.773Z,21.51
2018-09-03T13:25:07.214Z,21.63
2018-09-03T13:27:34.457Z,21.55
2018-09-03T13:30:01.814Z,21.67
2018-09-03T13:32:29.270Z,21.78
2018-09-03T13:34:56.582Z,21.96
2018-09-03T13:37:23.888Z,22.00
2018-09-03T13:39:51.189Z,22.08
2018-09-03T13:42:18.528Z,22.11
2018-09-03T13:44:45.930Z,21.94
2018-09-03T13:47:13.250Z,22.17
2018-09-03T13:49:40.654Z,22.35
2018-09-03T13:52:07.933Z,22.55
2018-09-03T13:54:35.181Z,22.89
2018-09-03T13:57:02.485Z,23.26
2018-09-03T13:59:29.785Z,23.32
2018-09-03T14:01:57.241Z,23.09
2018-09-03T14:04:25.208Z,23.29
2018-09-03T14:06:52.612Z,23.42
2018-09-03T14:09:19.988Z,23.46
2018-09-03T14:11:47.261Z,23.38
2018-09-03T14:14:14.663Z,23.58
2018-09-03T14:16:41.930Z,23.83
2018-09-03T14:19:09.263Z,23.69
2018-09-03T14:21:36.644Z,23.38
2018-09-03T14:24:03.978Z,23.15
2018-09-03T14:26:31.250Z,23.75
2018-09-03T14:28:58.563Z,24.19
2018-09-03T14:31:25.910Z,23.92
2018-09-03T14:33:53.514Z,23.87
2018-09-03T14:36:20.883Z,23.75
2018-09-03T14:38:48.152Z,23.62
2018-09-03T14:41:15.454Z,23.99
2018-09-03T14:43:42.932Z,24.66
2018-09-03T14:46:10.190Z,24.97
2018-09-03T14:48:37.605Z,24.63
2018-09-03T14:51:05.007Z,24.31
2018-09-03T14:53:32.241Z,24.86
2018-09-03T14:55:59.648Z,25.59
2018-09-03T14:58:27.017Z,25.64
2018-09-03T15:00:54.300Z,24.79
2018-09-03T15:03:21.607Z,24.48
2018-09-03T15:05:48.863Z,23.97
2018-09-03T15:08:16.223Z,24.91
2018-09-03T15:10:43.755Z,25.97
2018-09-03T15:13:11.061Z,26.96
2018-09-03T15:15:38.335Z,27.02
2018-09-03T15:18:05.647Z,26.24
2018-09-03T15:20:32.920Z,25.54
2018-09-03T15:23:00.233Z,25.15
2018-09-03T15:25:27.765Z,24.80
2018-09-03T15:27:55.110Z,24.55
2018-09-03T15:30:22.526Z,24.65
2018-09-03T15:32:49.783Z,25.12
2018-09-03T15:35:17.126Z,25.00
2018-09-03T15:37:45.223Z,24.63
2018-09-03T15:40:12.625Z,24.16
2018-09-03T15:42:39.978Z,23.82
2018-09-03T15:45:07.453Z,23.53
2018-09-03T15:47:34.870Z,23.37
2018-09-03T15:50:02.144Z,23.08
2018-09-03T15:52:29.472Z,22.98
2018-09-03T15:54:56.785Z,22.84
2018-09-03T15:57:24.345Z,22.61
2018-09-03T15:59:51.639Z,22.50
2018-09-03T16:02:18.907Z,22.28
2018-09-03T16:04:46.264Z,22.20
2018-09-03T16:07:13.486Z,22.08
2018-09-03T16:09:40.755Z,22.19
2018-09-03T16:12:08.163Z,22.25
2018-09-03T16:14:35.441Z,22.26
2018-09-03T16:17:02.739Z,22.31
2018-09-03T16:19:30.047Z,22.40
2018-09-03T16:21:57.411Z,22.42
2018-09-03T16:24:24.615Z,22.36
2018-09-03T16:26:51.887Z,22.42
2018-09-03T16:29:19.194Z,22.63
2018-09-03T16:31:46.502Z,23.01
2018-09-03T16:34:13.830Z,23.31
2018-09-03T16:36:41.137Z,23.72
2018-09-03T16:40:32.975Z,23.91
2018-09-03T16:43:00.207Z,23.94
2018-09-03T16:45:27.480Z,23.67
2018-09-03T16:47:54.760Z,23.79
2018-09-03T16:50:22.114Z,23.72
2018-09-03T16:52:49.376Z,23.77
2018-09-03T16:55:16.760Z,23.73
2018-09-03T16:57:43.964Z,23.38
2018-09-03T17:00:11.308Z,22.86
2018-09-03T17:02:38.695Z,22.75
2018-09-03T17:05:06.240Z,22.56
2018-09-03T17:07:33.594Z,22.25
2018-09-03T17:10:00.762Z,21.99
2018-09-03T17:12:28.145Z,21.98
2018-09-03T17:16:20.022Z,21.95
2018-09-03T17:18:47.250Z,21.84
2018-09-03T17:21:14.580Z,21.73
2018-09-03T17:23:42.084Z,21.69
2018-09-03T17:26:09.379Z,21.52
2018-09-03T17:28:42.487Z,20.61
2018-09-03T17:31:09.781Z,21.57
2018-09-03T17:33:37.101Z,21.58
2018-09-03T17:36:04.449Z,21.56
2018-09-03T17:38:31.768Z,21.48
2018-09-03T17:40:59.075Z,21.44
2018-09-03T17:43:26.372Z,21.45
2018-09-03T17:45:53.654Z,21.28
2018-09-03T17:48:20.856Z,21.23
2018-09-03T17:50:48.284Z,21.21
2018-09-03T17:53:15.620Z,21.11
2018-09-03T17:55:43.072Z,21.01
2018-09-03T17:58:10.295Z,21.00
2018-09-03T18:00:37.598Z,20.87
2018-09-03T18:03:05.517Z,20.72
2018-09-03T18:05:32.793Z,20.64
2018-09-03T18:08:00.248Z,20.58
2018-09-03T18:10:27.540Z,20.51
2018-09-03T18:12:54.885Z,20.44
2018-09-03T18:15:22.164Z,20.36
2018-09-03T18:17:49.606Z,20.30
2018-09-03T18:20:16.894Z,20.25
2018-09-03T18:22:44.202Z,20.11
2018-09-03T18:25:11.457Z,20.08
2018-09-03T18:27:38.736Z,19.99
2018-09-03T18:30:06.147Z,19.90
2018-09-03T18:32:34.485Z,19.77
2018-09-03T18:35:01.747Z,19.75
2018-09-03T18:37:29.040Z,19.56
2018-09-03T18:39:56.325Z,19.46
2018-09-03T18:42:23.665Z,19.37
2018-09-03T18:44:51.065Z,19.31
2018-09-03T18:47:18.603Z,19.19
2018-09-03T18:49:45.894Z,19.21
2018-09-03T18:52:13.374Z,19.15
2018-09-03T18:54:40.759Z,19.10
2018-09-03T18:57:08.069Z,19.13
2018-09-03T18:59:35.358Z,19.05
2018-09-03T19:02:02.649Z,19.00
2018-09-03T19:04:29.960Z,18.98
2018-09-03T19:06:57.203Z,18.93
2018-09-03T19:09:24.560Z,18.79
2018-09-03T19:11:51.837Z,18.67
2018-09-03T19:14:19.205Z,18.63
2018-09-03T19:16:46.634Z,18.44
2018-09-03T19:19:13.989Z,18.46
2018-09-03T19:21:41.448Z,18.53
2018-09-03T19:24:08.990Z,18.49
2018-09-03T19:26:36.243Z,18.38
2018-09-03T19:29:03.640Z,18.31
2018-09-03T19:31:31.039Z,18.19
2018-09-03T19:33:59.561Z,18.10
2018-09-03T19:36:27.080Z,18.00
2018-09-03T19:38:54.320Z,17.94
2018-09-03T19:41:21.716Z,17.91
2018-09-03T19:43:48.997Z,17.88
2018-09-03T19:46:16.460Z,17.81
2018-09-03T19:48:44.845Z,17.76
2018-09-03T19:51:12.232Z,17.73
2018-09-03T19:53:39.544Z,17.73
2018-09-03T19:56:06.921Z,17.66
2018-09-03T19:58:34.233Z,17.61
2018-09-03T20:01:01.487Z,17.58
2018-09-03T20:03:28.798Z,17.48
2018-09-03T20:05:57.815Z,17.43
2018-09-03T20:08:25.364Z,17.36
2018-09-03T20:10:52.570Z,17.28
2018-09-03T20:13:19.842Z,17.22
2018-09-03T20:15:47.202Z,17.28
2018-09-03T20:18:14.488Z,17.23
2018-09-03T20:20:41.782Z,17.14
2018-09-03T20:23:09.095Z,17.11
2018-09-03T20:25:36.439Z,17.08
2018-09-03T20:28:03.719Z,17.03
2018-09-03T20:30:31.052Z,17.02
2018-09-03T20:32:58.279Z,16.94
2018-09-03T20:38:07.965Z,16.85
2018-09-03T20:40:35.308Z,16.82
2018-09-03T20:43:02.672Z,16.76
2018-09-03T20:45:29.978Z,16.71
2018-09-03T20:47:57.359Z,16.67
2018-09-03T20:50:24.693Z,16.66
2018-09-03T20:52:51.966Z,16.59
2018-09-03T20:55:19.336Z,16.49
2018-09-03T20:57:46.648Z,16.49
2018-09-03T21:00:13.940Z,16.43
2018-09-03T21:02:41.247Z,16.38
2018-09-03T21:05:10.001Z,16.39
2018-09-03T21:07:37.254Z,16.47
2018-09-03T21:10:05.348Z,16.48
2018-09-03T21:12:32.663Z,16.46
2018-09-03T21:14:59.910Z,16.37
2018-09-03T21:17:27.262Z,16.29
2018-09-03T21:19:54.547Z,16.27
2018-09-03T21:22:21.921Z,16.23
2018-09-03T21:24:49.296Z,16.23
2018-09-03T21:27:16.517Z,16.17
2018-09-03T21:29:43.845Z,16.12
2018-09-03T21:32:11.263Z,16.17
2018-09-03T21:34:38.544Z,16.14
2018-09-03T21:37:05.851Z,16.15
2018-09-03T21:39:33.133Z,16.14
2018-09-03T21:42:00.563Z,16.03
2018-09-03T21:44:27.845Z,16.02
2018-09-03T21:46:55.223Z,16.01
2018-09-03T21:49:22.515Z,15.96
2018-09-03T21:51:49.782Z,15.91
2018-09-03T21:54:17.110Z,15.78
2018-09-03T21:56:44.452Z,15.81
2018-09-03T21:59:11.721Z,15.78
2018-09-03T22:01:38.964Z,15.84
2018-09-03T22:04:06.245Z,15.84
2018-09-03T22:06:33.557Z,15.80
2018-09-03T22:09:01.311Z,15.84
2018-09-03T22:11:28.757Z,15.54
2018-09-03T22:13:56.063Z,15.36
2018-09-03T22:16:23.326Z,15.28
2018-09-03T22:18:50.710Z,15.19
2018-09-03T22:21:18.059Z,15.20
2018-09-03T22:23:45.327Z,15.23
2018-09-03T22:26:12.554Z,15.28
2018-09-03T22:28:39.848Z,15.32
2018-09-03T22:31:07.267Z,15.33
2018-09-03T22:33:34.499Z,15.29
2018-09-03T22:36:01.861Z,15.29
2018-09-03T22:38:29.156Z,15.26
2018-09-03T22:40:56.472Z,15.22
2018-09-03T22:43:23.715Z,15.15
2018-09-03T22:45:51.042Z,15.17
2018-09-03T22:48:18.415Z,15.15
2018-09-03T22:50:45.790Z,15.15
2018-09-03T22:54:48.709Z,14.33
2018-09-03T22:57:16.079Z,15.12
2018-09-03T22:59:43.373Z,15.14
2018-09-03T23:02:10.634Z,15.16
2018-09-03T23:04:37.968Z,15.18
2018-09-03T23:07:05.318Z,15.10
2018-09-03T23:09:32.676Z,15.13
2018-09-03T23:13:04.030Z,15.20
2018-09-03T23:15:31.367Z,15.23
2018-09-03T23:17:58.631Z,15.23
2018-09-03T23:20:25.871Z,15.20
2018-09-03T23:22:53.159Z,15.15
2018-09-03T23:25:20.467Z,15.12
2018-09-03T23:27:47.879Z,15.15
2018-09-03T23:30:15.187Z,15.17
2018-09-03T23:32:42.530Z,15.09
2018-09-03T23:35:09.850Z,15.17
2018-09-03T23:37:37.789Z,15.19
2018-09-03T23:40:05.731Z,15.27
2018-09-03T23:42:33.016Z,15.37
2018-09-03T23:45:00.328Z,15.35
2018-09-03T23:47:27.656Z,15.30
2018-09-03T23:49:55.023Z,15.38
2018-09-03T23:52:22.301Z,15.40
2018-09-03T23:54:49.639Z,15.48
2018-09-03T23:57:16.897Z,15.44
2018-09-03T23:59:44.244Z,15.27
